• Join FlightAware (Why Join?)
  • Login
  • US Flag 
02:41AM EDT


 

Airport Tracker/Info


-or-


 

Live Flight TrackerFlight Track Log ✈ N682RW ✈ 17-Sep-2013 ✈ KMDW - KDTW

Flight Track Log - Related Links

Times and Time Zones

All times are in EDT time to prevent confusion due to time zone crossing. See the N682RW flight status page for this flight to view local times or setup timezone preferences in your user account.

Time Position Orientation Groundspeed Altitude Reporting Facility
EDT Latitude Longitude Course Direction KTS MPH feet Rate Location/Type
11:58PM 41.8042 -87.7039 86° East 187 215 2,900  Level Chicago Center
11:59PM 41.8086 -87.6178 86° East 230 265 5,400 2,940 Climbing Chicago Center
12:00AM 41.7967 -87.5136 99° East 279 321 8,900 3,240 Climbing Chicago Center
12:01AM 41.7842 -87.4011 98° East 302 348 12,000 3,420 Climbing Chicago Center
12:02AM 41.7886 -87.2583 88° East 327 376 15,800 2,940 Climbing Chicago Center
12:03AM 41.7619 -87.1436 107° East 325 374 18,000 1,560 Climbing Chicago Center
12:04AM 41.7856 -87.0058 77° East 377 434 19,000 480 Climbing Chicago Center
12:05AM 41.8064 -86.8536 80° East 409 471 19,000  Level Chicago Center
12:06AM 41.8253 -86.7000 81° East 416 479 19,000  Level Chicago Center
12:07AM 41.8444 -86.5464 80° East 412 474 19,000  Level Chicago Center
12:08AM 41.8639 -86.3983 80° East 404 465 19,000  Level Chicago Center
12:09AM 41.8836 -86.2486 80° East 407 468 19,000  Level Chicago Center
12:10AM 41.9028 -86.0986 80° East 408 470 19,000  Level Chicago Center
12:11AM 41.9211 -85.9489 81° East 406 467 19,000  Level Chicago Center
12:12AM 41.9400 -85.7953 81° East 413 475 19,000  Level Chicago Center
12:13AM 41.9592 -85.6433 80° East 411 473 19,000  Level Chicago Center
12:14AM 41.9783 -85.4925 80° East 409 471 19,000  Level Chicago Center
12:15AM 41.9778 -85.3469 90° East 388 447 19,000 -540 Level Chicago Center
12:16AM 41.9767 -85.2053 91° East 378 435 18,000 -1,200 Descending Chicago Center
12:17AM 41.9769 -85.0661 90° East 374 430 16,700 -1,440 Descending Chicago Center
12:18AM 41.9769 -84.9308 90° East 363 418 15,200 -1,500 Descending Chicago Center
12:19AM 41.9761 -84.7953 90° East 362 417 13,800 -1,380 Descending Chicago Center
12:20AM 41.9753 -84.6792 91° East 366 421 12,500 -1,140 Descending Chicago Center
12:21AM 41.9750 -84.5161 90° East 365 420 11,600 -600 Descending Chicago Center
12:22AM 41.9753 -84.3775 90° East 370 426 11,300 -360 Descending Chicago Center
12:23AM 41.9725 -84.2475 92° East 365 420 11,000 -180 Descending Cleveland Center
12:24AM 41.9711 -84.1150 91° East 358 412 11,000  Level Cleveland Center
12:24AM 41.9725 -84.1283 278° West 360 414 11,000  Level Cleveland Center
12:25AM 42.0028 -83.9878 74° East 365 420 11,000  Level Cleveland Center
12:26AM 42.0603 -83.8972 49° Northeast 363 418 11,000  Level Cleveland Center
12:26AM 42.0697 -83.8881 36° Northeast 364 419 11,000 -420 Level Cleveland Center
12:27AM 42.1281 -83.7961 49° Northeast 363 418 10,600 -600 Descending Cleveland Center
12:28AM 42.1914 -83.7050 47° Northeast 339 390 9,900 -900 Descending Cleveland Center
12:28AM 42.1986 -83.6986 33° Northeast 307 353 9,700 -1,620 Descending Cleveland Center
12:29AM 42.2475 -83.6261 48° Northeast 297 342 8,300 -1,800 Descending Cleveland Center
12:29AM 42.2581 -83.6114 46° Northeast 287 330 7,900 -1,440 Descending Cleveland Center
12:30AM 42.3117 -83.5356 46° Northeast 288 331 6,900 -1,020 Descending Cleveland Center
12:30AM 42.3122 -83.5347 48° Northeast 271 312 6,900 -1,020 Level Cleveland Center
12:31AM 42.3531 -83.4775 46° Northeast 265 305 5,900 -1,140 Descending Cleveland Center
12:31AM 42.3639 -83.4658 39° Northeast 257 296 5,800 -1,440 Descending Cleveland Center
12:32AM 42.3961 -83.3908 60° Northeast 262 302 4,500 -1,440 Descending Cleveland Center
12:32AM 42.4017 -83.3836 44° Northeast 258 297 4,400 -1,020 Descending Cleveland Center
12:33AM 42.3925 -83.3053 99° East 250 288 3,500 -900 Descending Cleveland Center
12:33AM 42.3856 -83.2964 137° Southeast 234 269 3,500 -240 Level Cleveland Center
12:34AM 42.3458 -83.2792 162° South 184 212 3,300 -240 Descending Cleveland Center
12:34AM 42.3406 -83.2817 199° South 149 171 3,300 -720 Level Cleveland Center
12:35AM 42.3078 -83.3039 207° Southwest 153 176 2,600 -840 Descending Cleveland Center
12:35AM 42.3028 -83.3103 223° Southwest 150 173 2,500 -840 Descending Cleveland Center
12:36AM 42.2711 -83.3331 208° Southwest 151 174 1,800 -900 Descending Cleveland Center
12:36AM 42.2672 -83.3361 210° Southwest 131 151 1,600 -840 Descending Cleveland Center
12:37AM 42.2397 -83.3556 208° Southwest 137 158 1,000 -720 Descending Cleveland Center
12:37AM 42.2358 -83.3600 220° Southwest 132 152 900 -420 Descending Cleveland Center
12:38AM 42.2103 -83.3767 206° Southwest 135 155 600 -360 Descending Cleveland Center